sensor_id;sensor_type;location;lat;lon;timestamp;pressure;altitude;pressure_sealevel;temperature;humidity
42177;BME280;28126;51.060;19.460;2022-11-15T00:01:48;98935.00;;;25.24;42.05
42177;BME280;28126;51.060;19.460;2022-11-15T00:05:09;98930.08;;;25.24;42.08
42177;BME280;28126;51.060;19.460;2022-11-15T00:08:32;98927.36;;;25.24;42.08
42177;BME280;28126;51.060;19.460;2022-11-15T00:11:53;98924.64;;;25.24;42.11
42177;BME280;28126;51.060;19.460;2022-11-15T00:15:14;98915.88;;;25.22;42.11
42177;BME280;28126;51.060;19.460;2022-11-15T00:18:34;98914.52;;;25.22;42.09
42177;BME280;28126;51.060;19.460;2022-11-15T00:21:54;98912.31;;;25.21;42.12
42177;BME280;28126;51.060;19.460;2022-11-15T00:25:15;98905.52;;;25.21;42.05
42177;BME280;28126;51.060;19.460;2022-11-15T00:28:36;98902.99;;;25.20;42.03
42177;BME280;28126;51.060;19.460;2022-11-15T00:31:57;98902.16;;;25.19;42.03
42177;BME280;28126;51.060;19.460;2022-11-15T00:35:19;98898.80;;;25.17;42.06
42177;BME280;28126;51.060;19.460;2022-11-15T00:38:40;98894.71;;;25.17;42.07
42177;BME280;28126;51.060;19.460;2022-11-15T00:42:00;98891.19;;;25.17;42.07
42177;BME280;28126;51.060;19.460;2022-11-15T00:45:21;98889.50;;;25.16;42.05
42177;BME280;28126;51.060;19.460;2022-11-15T00:48:42;98887.30;;;25.15;42.06
42177;BME280;28126;51.060;19.460;2022-11-15T00:52:04;98876.95;;;25.15;42.08
42177;BME280;28126;51.060;19.460;2022-11-15T00:55:25;98872.02;;;25.14;42.06
42177;BME280;28126;51.060;19.460;2022-11-15T00:58:45;98871.19;;;25.14;42.00
42177;BME280;28126;51.060;19.460;2022-11-15T01:02:06;98865.94;;;25.12;41.99
42177;BME280;28126;51.060;19.460;2022-11-15T01:05:27;98862.19;;;25.13;42.19
42177;BME280;28126;51.060;19.460;2022-11-15T01:08:48;98861.66;;;25.14;42.18
42177;BME280;28126;51.060;19.460;2022-11-15T01:12:09;98859.14;;;25.12;42.13
42177;BME280;28126;51.060;19.460;2022-11-15T01:15:29;98859.14;;;25.12;42.10
42177;BME280;28126;51.060;19.460;2022-11-15T01:18:51;98856.11;;;25.11;42.14
42177;BME280;28126;51.060;19.460;2022-11-15T01:22:12;98850.37;;;25.10;42.12
42177;BME280;28126;51.060;19.460;2022-11-15T01:25:33;98838.98;;;25.11;42.11
42177;BME280;28126;51.060;19.460;2022-11-15T01:28:54;98831.55;;;25.09;42.10
42177;BME280;28126;51.060;19.460;2022-11-15T01:32:16;98833.42;;;25.08;42.12
42177;BME280;28126;51.060;19.460;2022-11-15T01:35:39;98834.58;;;25.10;42.05
42177;BME280;28126;51.060;19.460;2022-11-15T01:39:00;98827.78;;;25.10;42.01
42177;BME280;28126;51.060;19.460;2022-11-15T01:42:21;98822.03;;;25.09;41.98
42177;BME280;28126;51.060;19.460;2022-11-15T01:45:42;98811.98;;;25.09;41.98
42177;BME280;28126;51.060;19.460;2022-11-15T01:49:11;98811.47;;;25.10;42.00
42177;BME280;28126;51.060;19.460;2022-11-15T01:52:32;98799.44;;;25.08;41.95
42177;BME280;28126;51.060;19.460;2022-11-15T01:55:54;98801.31;;;25.08;41.95
42177;BME280;28126;51.060;19.460;2022-11-15T01:59:15;98799.11;;;25.07;41.96
42177;BME280;28126;51.060;19.460;2022-11-15T02:02:36;98790.12;;;25.07;41.95
42177;BME280;28126;51.060;19.460;2022-11-15T02:05:58;98786.36;;;25.08;41.91
42177;BME280;28126;51.060;19.460;2022-11-15T02:09:21;98781.75;;;25.08;41.77
42177;BME280;28126;51.060;19.460;2022-11-15T02:12:41;98774.12;;;25.08;41.83
42177;BME280;28126;51.060;19.460;2022-11-15T02:24:33;98761.80;;;25.05;41.85
42177;BME280;28126;51.060;19.460;2022-11-15T02:32:12;98760.52;;;25.01;41.87
42177;BME280;28126;51.060;19.460;2022-11-15T02:35:58;98766.16;;;24.99;41.87
42177;BME280;28126;51.060;19.460;2022-11-15T02:39:46;98765.35;;;24.99;41.92
42177;BME280;28126;51.060;19.460;2022-11-15T02:43:12;98758.75;;;24.97;41.93
42177;BME280;28126;51.060;19.460;2022-11-15T02:46:58;98751.95;;;24.97;41.89
42177;BME280;28126;51.060;19.460;2022-11-15T02:50:33;98756.56;;;24.97;41.90
42177;BME280;28126;51.060;19.460;2022-11-15T02:53:54;98749.77;;;24.97;41.89
42177;BME280;28126;51.060;19.460;2022-11-15T02:57:17;98745.16;;;24.97;41.87
42177;BME280;28126;51.060;19.460;2022-11-15T03:04:43;98748.20;;;24.98;41.85
42177;BME280;28126;51.060;19.460;2022-11-15T03:08:21;98745.05;;;24.95;41.92
42177;BME280;28126;51.060;19.460;2022-11-15T03:11:47;98742.13;;;24.96;41.89
42177;BME280;28126;51.060;19.460;2022-11-15T03:15:18;98737.53;;;24.97;41.86
42177;BME280;28126;51.060;19.460;2022-11-15T03:18:52;98724.45;;;24.96;41.83
42177;BME280;28126;51.060;19.460;2022-11-15T03:22:16;98729.17;;;24.98;41.78
42177;BME280;28126;51.060;19.460;2022-11-15T03:25:45;98726.13;;;24.97;41.82
42177;BME280;28126;51.060;19.460;2022-11-15T03:29:16;98721.02;;;24.98;41.74
42177;BME280;28126;51.060;19.460;2022-11-15T03:32:53;98709.30;;;24.98;41.79
42177;BME280;28126;51.060;19.460;2022-11-15T03:36:14;98706.06;;;24.98;41.80
42177;BME280;28126;51.060;19.460;2022-11-15T03:39:35;98710.34;;;24.97;41.89
42177;BME280;28126;51.060;19.460;2022-11-15T03:43:17;98710.14;;;24.98;41.82
42177;BME280;28126;51.060;19.460;2022-11-15T03:50:20;98700.63;;;24.98;41.72
42177;BME280;28126;51.060;19.460;2022-11-15T03:53:43;98695.70;;;24.98;41.76
42177;BME280;28126;51.060;19.460;2022-11-15T03:57:04;98690.87;;;25.00;41.74
42177;BME280;28126;51.060;19.460;2022-11-15T04:00:26;98684.59;;;24.99;41.74
42177;BME280;28126;51.060;19.460;2022-11-15T04:03:47;98682.11;;;24.98;41.75
42177;BME280;28126;51.060;19.460;2022-11-15T04:07:08;98682.11;;;24.98;41.72
42177;BME280;28126;51.060;19.460;2022-11-15T04:10:29;98678.88;;;24.98;41.70
42177;BME280;28126;51.060;19.460;2022-11-15T04:13:50;98689.23;;;24.99;41.65
42177;BME280;28126;51.060;19.460;2022-11-15T04:17:10;98686.51;;;24.99;41.65
42177;BME280;28126;51.060;19.460;2022-11-15T04:20:32;98683.99;;;24.97;41.67
42177;BME280;28126;51.060;19.460;2022-11-15T04:24:12;98676.36;;;24.97;41.66
42177;BME280;28126;51.060;19.460;2022-11-15T04:27:32;98678.75;;;24.96;41.65
42177;BME280;28126;51.060;19.460;2022-11-15T04:30:53;98676.36;;;24.97;41.64
42177;BME280;28126;51.060;19.460;2022-11-15T04:34:13;98678.55;;;24.97;41.65
42177;BME280;28126;51.060;19.460;2022-11-15T04:37:34;98683.16;;;24.97;41.59
42177;BME280;28126;51.060;19.460;2022-11-15T04:40:55;98678.23;;;24.96;41.59
42177;BME280;28126;51.060;19.460;2022-11-15T04:44:15;98678.03;;;24.98;41.63
42177;BME280;28126;51.060;19.460;2022-11-15T04:47:36;98667.67;;;24.97;41.53
42177;BME280;28126;51.060;19.460;2022-11-15T04:50:57;98668.00;;;24.98;41.51
42177;BME280;28126;51.060;19.460;2022-11-15T04:54:18;98664.44;;;24.98;41.53
42177;BME280;28126;51.060;19.460;2022-11-15T04:57:39;98659.84;;;24.98;41.48
42177;BME280;28126;51.060;19.460;2022-11-15T05:01:13;98654.41;;;24.98;41.46
42177;BME280;28126;51.060;19.460;2022-11-15T05:04:34;98652.52;;;24.99;41.44
42177;BME280;28126;51.060;19.460;2022-11-15T05:07:55;98648.65;;;24.97;41.39
42177;BME280;28126;51.060;19.460;2022-11-15T05:11:15;98640.28;;;24.99;41.43
42177;BME280;28126;51.060;19.460;2022-11-15T05:14:36;98642.69;;;24.98;41.44
42177;BME280;28126;51.060;19.460;2022-11-15T05:17:59;98648.12;;;24.98;41.32
42177;BME280;28126;51.060;19.460;2022-11-15T05:21:21;98652.52;;;24.99;41.39
42177;BME280;28126;51.060;19.460;2022-11-15T05:24:41;98648.97;;;24.98;41.32
42177;BME280;28126;51.060;19.460;2022-11-15T05:28:01;98654.41;;;24.98;41.34
42177;BME280;28126;51.060;19.460;2022-11-15T05:31:24;98647.29;;;24.97;41.39
42177;BME280;28126;51.060;19.460;2022-11-15T05:34:46;98643.20;;;24.97;41.51
42177;BME280;28126;51.060;19.460;2022-11-15T05:38:07;98639.13;;;24.97;41.49
42177;BME280;28126;51.060;19.460;2022-11-15T05:41:43;98637.25;;;24.98;41.45
42177;BME280;28126;51.060;19.460;2022-11-15T05:45:06;98638.09;;;24.98;41.42
42177;BME280;28126;51.060;19.460;2022-11-15T05:48:27;98631.50;;;24.97;41.39
42177;BME280;28126;51.060;19.460;2022-11-15T05:51:50;98633.70;;;24.97;41.42
42177;BME280;28126;51.060;19.460;2022-11-15T05:55:12;98639.97;;;24.98;41.42
42177;BME280;28126;51.060;19.460;2022-11-15T05:58:33;98640.49;;;24.97;41.30
42177;BME280;28126;51.060;19.460;2022-11-15T06:01:55;98637.14;;;24.95;41.40
42177;BME280;28126;51.060;19.460;2022-11-15T06:05:15;98639.34;;;24.96;41.37
42177;BME280;28126;51.060;19.460;2022-11-15T06:08:36;98647.49;;;24.96;41.39
42177;BME280;28126;51.060;19.460;2022-11-15T06:11:56;98646.45;;;24.97;41.34
42177;BME280;28126;51.060;19.460;2022-11-15T06:15:17;98636.09;;;24.96;41.30
42177;BME280;28126;51.060;19.460;2022-11-15T06:18:39;98642.05;;;24.96;41.31
42177;BME280;28126;51.060;19.460;2022-11-15T06:22:00;98645.30;;;24.95;41.29
42177;BME280;28126;51.060;19.460;2022-11-15T06:25:22;98642.78;;;24.94;41.32
42177;BME280;28126;51.060;19.460;2022-11-15T06:28:43;98642.26;;;24.94;41.23
42177;BME280;28126;51.060;19.460;2022-11-15T06:32:04;98653.97;;;24.95;41.29
42177;BME280;28126;51.060;19.460;2022-11-15T06:35:27;98650.21;;;24.96;41.23
42177;BME280;28126;51.060;19.460;2022-11-15T06:38:48;98648.02;;;24.95;41.30
42177;BME280;28126;51.060;19.460;2022-11-15T06:42:09;98648.02;;;24.95;41.18
42177;BME280;28126;51.060;19.460;2022-11-15T06:45:30;98646.66;;;24.95;41.27
42177;BME280;28126;51.060;19.460;2022-11-15T06:48:53;98648.84;;;24.96;41.18
42177;BME280;28126;51.060;19.460;2022-11-15T06:52:15;98646.86;;;24.94;41.20
42177;BME280;28126;51.060;19.460;2022-11-15T06:55:37;98650.73;;;24.95;41.17
42177;BME280;28126;51.060;19.460;2022-11-15T06:58:58;98648.84;;;24.96;41.18
42177;BME280;28126;51.060;19.460;2022-11-15T07:02:20;98640.90;;;24.94;41.23
42177;BME280;28126;51.060;19.460;2022-11-15T07:05:41;98633.90;;;24.96;41.35
42177;BME280;28126;51.060;19.460;2022-11-15T07:09:03;98635.78;;;24.95;41.31
42177;BME280;28126;51.060;19.460;2022-11-15T07:12:24;98626.78;;;24.95;41.30
42177;BME280;28126;51.060;19.460;2022-11-15T07:15:45;98630.86;;;24.95;41.29
42177;BME280;28126;51.060;19.460;2022-11-15T07:19:05;98627.30;;;24.94;41.20
42177;BME280;28126;51.060;19.460;2022-11-15T07:22:25;98623.55;;;24.95;41.28
42177;BME280;28126;51.060;19.460;2022-11-15T07:25:47;98619.47;;;24.95;41.42
42177;BME280;28126;51.060;19.460;2022-11-15T07:29:08;98617.38;;;24.97;41.67
42177;BME280;28126;51.060;19.460;2022-11-15T07:32:29;98619.78;;;24.96;41.75
42177;BME280;28126;51.060;19.460;2022-11-15T07:35:50;98622.62;;;24.99;41.92
42177;BME280;28126;51.060;19.460;2022-11-15T07:39:14;98624.18;;;24.97;42.04
42177;BME280;28126;51.060;19.460;2022-11-15T07:42:34;98626.38;;;24.98;42.35
42177;BME280;28126;51.060;19.460;2022-11-15T07:46:13;98618.22;;;24.98;42.56
42177;BME280;28126;51.060;19.460;2022-11-15T07:49:34;98628.78;;;24.97;42.50
42177;BME280;28126;51.060;19.460;2022-11-15T07:52:56;98624.70;;;24.97;42.54
42177;BME280;28126;51.060;19.460;2022-11-15T07:56:18;98627.42;;;24.97;42.63
42177;BME280;28126;51.060;19.460;2022-11-15T07:59:38;98622.82;;;24.97;42.70
42177;BME280;28126;51.060;19.460;2022-11-15T08:03:11;98617.38;;;24.97;42.70
42177;BME280;28126;51.060;19.460;2022-11-15T08:06:33;98612.47;;;24.97;42.66
42177;BME280;28126;51.060;19.460;2022-11-15T08:09:55;98616.02;;;24.97;42.55
42177;BME280;28126;51.060;19.460;2022-11-15T08:13:16;98609.23;;;24.97;42.45
42177;BME280;28126;51.060;19.460;2022-11-15T08:16:36;98610.06;;;24.98;42.22
42177;BME280;28126;51.060;19.460;2022-11-15T08:19:56;98603.79;;;24.97;41.93
42177;BME280;28126;51.060;19.460;2022-11-15T08:23:17;98603.79;;;24.97;41.93
42177;BME280;28126;51.060;19.460;2022-11-15T08:26:39;98596.47;;;24.98;41.72
42177;BME280;28126;51.060;19.460;2022-11-15T08:30:00;98593.44;;;24.97;41.61
42177;BME280;28126;51.060;19.460;2022-11-15T08:33:23;98596.99;;;24.97;41.33
42177;BME280;28126;51.060;19.460;2022-11-15T08:36:45;98592.71;;;24.99;41.28
42177;BME280;28126;51.060;19.460;2022-11-15T08:40:08;98584.44;;;24.96;41.12
42177;BME280;28126;51.060;19.460;2022-11-15T08:43:29;98585.59;;;24.98;41.20
42177;BME280;28126;51.060;19.460;2022-11-15T08:46:50;98589.99;;;24.99;40.73
42177;BME280;28126;51.060;19.460;2022-11-15T08:50:11;98592.27;;;25.02;41.24
42177;BME280;28126;51.060;19.460;2022-11-15T08:53:31;98590.50;;;25.05;41.29
42177;BME280;28126;51.060;19.460;2022-11-15T08:56:54;98585.66;;;25.07;41.27
42177;BME280;28126;51.060;19.460;2022-11-15T09:00:17;98590.37;;;25.09;41.37
42177;BME280;28126;51.060;19.460;2022-11-15T09:03:41;98587.20;;;25.12;41.52
42177;BME280;28126;51.060;19.460;2022-11-15T09:07:03;98585.13;;;25.14;41.33
42177;BME280;28126;51.060;19.460;2022-11-15T09:10:24;98589.20;;;25.14;41.17
42177;BME280;28126;51.060;19.460;2022-11-15T09:13:46;98585.95;;;25.15;41.13
42177;BME280;28126;51.060;19.460;2022-11-15T09:17:08;98590.11;;;25.17;41.30
42177;BME280;28126;51.060;19.460;2022-11-15T09:20:31;98589.70;;;25.20;41.27
42177;BME280;28126;51.060;19.460;2022-11-15T09:23:51;98587.06;;;25.23;41.30
42177;BME280;28126;51.060;19.460;2022-11-15T09:27:12;98587.38;;;25.24;41.21
42177;BME280;28126;51.060;19.460;2022-11-15T09:30:33;98578.69;;;25.24;41.34
42177;BME280;28126;51.060;19.460;2022-11-15T09:33:54;98579.33;;;25.26;41.39
42177;BME280;28126;51.060;19.460;2022-11-15T09:37:15;98573.05;;;25.26;40.03
42177;BME280;28126;51.060;19.460;2022-11-15T09:40:37;98568.58;;;25.22;38.15
42177;BME280;28126;51.060;19.460;2022-11-15T09:51:50;98552.11;;;25.04;37.63
42177;BME280;28126;51.060;19.460;2022-11-15T09:54:55;98552.53;;;25.01;37.36
42177;BME280;28126;51.060;19.460;2022-11-15T09:58:04;98547.72;;;25.03;37.71
42177;BME280;28126;51.060;19.460;2022-11-15T10:01:12;98545.00;;;25.03;37.17
42177;BME280;28126;51.060;19.460;2022-11-15T10:04:13;98540.41;;;25.03;36.75
42177;BME280;28126;51.060;19.460;2022-11-15T10:10:51;98522.30;;;25.00;35.62
42177;BME280;28126;51.060;19.460;2022-11-15T10:13:56;98513.76;;;24.96;36.09
42177;BME280;28126;51.060;19.460;2022-11-15T10:23:30;98492.14;;;24.92;35.84
42177;BME280;28126;51.060;19.460;2022-11-15T10:26:34;98482.00;;;24.90;35.05
42177;BME280;28126;51.060;19.460;2022-11-15T10:29:47;98483.87;;;24.90;34.93
42177;BME280;28126;51.060;19.460;2022-11-15T10:32:50;98478.65;;;24.88;34.85
42177;BME280;28126;51.060;19.460;2022-11-15T10:39:17;98461.82;;;24.89;35.48
42177;BME280;28126;51.060;19.460;2022-11-15T10:42:28;98465.89;;;24.89;35.42
42177;BME280;28126;51.060;19.460;2022-11-15T10:45:34;98462.97;;;24.90;35.60
42177;BME280;28126;51.060;19.460;2022-11-15T10:48:36;98459.20;;;24.91;36.03
42177;BME280;28126;51.060;19.460;2022-11-15T10:51:55;98458.16;;;24.92;36.16
42177;BME280;28126;51.060;19.460;2022-11-15T10:58:39;98446.84;;;24.95;35.85
42177;BME280;28126;51.060;19.460;2022-11-15T11:01:49;98445.17;;;24.94;35.87
42177;BME280;28126;51.060;19.460;2022-11-15T11:04:51;98443.28;;;24.95;35.28
42177;BME280;28126;51.060;19.460;2022-11-15T11:11:07;98444.55;;;24.99;35.67
42177;BME280;28126;51.060;19.460;2022-11-15T11:14:22;98439.91;;;24.99;35.50
42177;BME280;28126;51.060;19.460;2022-11-15T11:21:02;98430.11;;;24.98;35.00
42177;BME280;28126;51.060;19.460;2022-11-15T11:24:31;98422.48;;;24.98;35.01
42177;BME280;28126;51.060;19.460;2022-11-15T11:35:01;98407.91;;;25.01;36.01
42177;BME280;28126;51.060;19.460;2022-11-15T11:41:47;98402.27;;;25.03;36.39
42177;BME280;28126;51.060;19.460;2022-11-15T11:48:13;98388.46;;;25.05;35.99
42177;BME280;28126;51.060;19.460;2022-11-15T11:51:23;98392.30;;;25.06;36.46
42177;BME280;28126;51.060;19.460;2022-11-15T11:58:06;98373.05;;;25.08;35.77
42177;BME280;28126;51.060;19.460;2022-11-15T12:01:23;98375.25;;;25.08;35.60
42177;BME280;28126;51.060;19.460;2022-11-15T12:04:35;98367.93;;;25.09;35.88
42177;BME280;28126;51.060;19.460;2022-11-15T12:07:38;98362.49;;;25.09;35.77
42177;BME280;28126;51.060;19.460;2022-11-15T12:10:47;98358.73;;;25.10;35.13
42177;BME280;28126;51.060;19.460;2022-11-15T12:13:53;98353.59;;;25.11;35.53
42177;BME280;28126;51.060;19.460;2022-11-15T12:16:54;98360.38;;;24.73;36.51
42177;BME280;28126;51.060;19.460;2022-11-15T12:19:59;98352.18;;;25.01;36.10
42177;BME280;28126;51.060;19.460;2022-11-15T12:23:20;98353.33;;;25.03;35.15
42177;BME280;28126;51.060;19.460;2022-11-15T12:26:26;98347.79;;;25.00;34.46
42177;BME280;28126;51.060;19.460;2022-11-15T12:29:46;98348.98;;;24.95;34.59
42177;BME280;28126;51.060;19.460;2022-11-15T12:32:55;98336.26;;;24.89;34.21
42177;BME280;28126;51.060;19.460;2022-11-15T12:36:08;98338.98;;;24.89;33.83
42177;BME280;28126;51.060;19.460;2022-11-15T12:39:08;98332.92;;;24.87;33.88
42177;BME280;28126;51.060;19.460;2022-11-15T12:45:32;98332.19;;;24.89;33.78
42177;BME280;28126;51.060;19.460;2022-11-15T12:54:58;98331.87;;;24.88;33.87
42177;BME280;28126;51.060;19.460;2022-11-15T12:58:28;98327.06;;;24.90;34.12
42177;BME280;28126;51.060;19.460;2022-11-15T13:04:40;98319.02;;;24.86;33.47
42177;BME280;28126;51.060;19.460;2022-11-15T13:10:49;98316.71;;;24.90;33.89
42177;BME280;28126;51.060;19.460;2022-11-15T13:13:52;98314.83;;;24.90;33.77
42177;BME280;28126;51.060;19.460;2022-11-15T13:17:00;98311.38;;;24.92;33.63
42177;BME280;28126;51.060;19.460;2022-11-15T13:23:15;98311.38;;;24.92;33.40
42177;BME280;28126;51.060;19.460;2022-11-15T13:26:18;98308.66;;;24.92;33.88
42177;BME280;28126;51.060;19.460;2022-11-15T13:29:21;98306.00;;;24.95;33.69
42177;BME280;28126;51.060;19.460;2022-11-15T13:32:23;98308.20;;;24.95;33.21
42177;BME280;28126;51.060;19.460;2022-11-15T13:35:28;98304.22;;;24.98;33.23
42177;BME280;28126;51.060;19.460;2022-11-15T13:38:35;98297.64;;;24.96;33.20
42177;BME280;28126;51.060;19.460;2022-11-15T13:41:50;98295.23;;;24.97;33.53
42177;BME280;28126;51.060;19.460;2022-11-15T13:45:03;98288.22;;;24.99;34.02
42177;BME280;28126;51.060;19.460;2022-11-15T13:48:03;98289.86;;;25.00;33.65
42177;BME280;28126;51.060;19.460;2022-11-15T13:51:36;98281.49;;;25.01;33.54
42177;BME280;28126;51.060;19.460;2022-11-15T13:55:17;98285.05;;;25.02;33.46
42177;BME280;28126;51.060;19.460;2022-11-15T13:58:20;98289.34;;;25.00;33.49
42177;BME280;28126;51.060;19.460;2022-11-15T14:01:22;98280.07;;;24.99;33.45
42177;BME280;28126;51.060;19.460;2022-11-15T14:04:28;98273.55;;;25.00;33.28
42177;BME280;28126;51.060;19.460;2022-11-15T14:07:33;98271.91;;;24.99;33.13
42177;BME280;28126;51.060;19.460;2022-11-15T14:10:38;98269.41;;;24.97;33.56
42177;BME280;28126;51.060;19.460;2022-11-15T14:13:57;98276.80;;;24.99;33.44
42177;BME280;28126;51.060;19.460;2022-11-15T14:16:55;98271.67;;;25.00;33.64
42177;BME280;28126;51.060;19.460;2022-11-15T14:19:54;98272.50;;;25.01;34.07
42177;BME280;28126;51.060;19.460;2022-11-15T14:23:05;98267.84;;;24.99;33.80
42177;BME280;28126;51.060;19.460;2022-11-15T14:26:33;98260.27;;;25.01;33.99
42177;BME280;28126;51.060;19.460;2022-11-15T14:29:31;98250.23;;;25.01;33.90
42177;BME280;28126;51.060;19.460;2022-11-15T14:32:48;98250.23;;;25.01;34.19
42177;BME280;28126;51.060;19.460;2022-11-15T14:35:52;98248.13;;;25.03;34.17
42177;BME280;28126;51.060;19.460;2022-11-15T14:38:54;98247.52;;;25.01;34.02
42177;BME280;28126;51.060;19.460;2022-11-15T14:41:56;98250.85;;;25.03;33.83
42177;BME280;28126;51.060;19.460;2022-11-15T14:44:58;98236.73;;;25.04;34.21
42177;BME280;28126;51.060;19.460;2022-11-15T14:48:00;98230.77;;;25.05;33.90
42177;BME280;28126;51.060;19.460;2022-11-15T14:51:03;98229.94;;;25.04;34.32
42177;BME280;28126;51.060;19.460;2022-11-15T14:54:07;98222.83;;;25.03;34.31
42177;BME280;28126;51.060;19.460;2022-11-15T14:57:09;98224.19;;;25.03;34.33
42177;BME280;28126;51.060;19.460;2022-11-15T15:00:12;98224.72;;;25.02;34.90
42177;BME280;28126;51.060;19.460;2022-11-15T15:03:14;98219.06;;;25.04;34.97
42177;BME280;28126;51.060;19.460;2022-11-15T15:06:15;98219.59;;;25.03;34.82
42177;BME280;28126;51.060;19.460;2022-11-15T15:09:17;98215.51;;;25.03;35.02
42177;BME280;28126;51.060;19.460;2022-11-15T15:12:21;98216.56;;;25.02;34.99
42177;BME280;28126;51.060;19.460;2022-11-15T15:15:36;98212.48;;;25.02;35.46
42177;BME280;28126;51.060;19.460;2022-11-15T15:18:38;98217.39;;;25.03;35.36
42177;BME280;28126;51.060;19.460;2022-11-15T15:21:39;98213.31;;;25.03;35.90
42177;BME280;28126;51.060;19.460;2022-11-15T15:24:42;98207.14;;;25.05;36.02
42177;BME280;28126;51.060;19.460;2022-11-15T15:27:44;98206.89;;;25.07;36.34
42177;BME280;28126;51.060;19.460;2022-11-15T15:30:45;98203.65;;;25.07;36.41
42177;BME280;28126;51.060;19.460;2022-11-15T15:33:47;98203.74;;;25.10;37.19
42177;BME280;28126;51.060;19.460;2022-11-15T15:36:48;98192.63;;;25.11;37.79
42177;BME280;28126;51.060;19.460;2022-11-15T15:39:57;98189.16;;;25.13;37.83
42177;BME280;28126;51.060;19.460;2022-11-15T15:43:00;98187.59;;;25.15;38.54
42177;BME280;28126;51.060;19.460;2022-11-15T15:46:01;98180.57;;;25.16;38.69
42177;BME280;28126;51.060;19.460;2022-11-15T15:49:03;98179.27;;;25.19;40.11
42177;BME280;28126;51.060;19.460;2022-11-15T15:52:05;98185.86;;;25.20;40.79
42177;BME280;28126;51.060;19.460;2022-11-15T15:55:08;98184.87;;;25.24;40.75
42177;BME280;28126;51.060;19.460;2022-11-15T15:58:11;98185.70;;;25.24;40.42
42177;BME280;28126;51.060;19.460;2022-11-15T16:01:13;98176.80;;;25.26;40.12
42177;BME280;28126;51.060;19.460;2022-11-15T16:04:14;98179.58;;;25.29;40.19
42177;BME280;28126;51.060;19.460;2022-11-15T16:07:20;98178.84;;;25.31;40.23
42177;BME280;28126;51.060;19.460;2022-11-15T16:10:25;98178.62;;;25.32;40.22
42177;BME280;28126;51.060;19.460;2022-11-15T16:13:27;98181.34;;;25.32;40.18
42177;BME280;28126;51.060;19.460;2022-11-15T16:16:29;98181.92;;;25.34;39.99
42177;BME280;28126;51.060;19.460;2022-11-15T16:19:31;98183.06;;;25.36;40.10
42177;BME280;28126;51.060;19.460;2022-11-15T16:22:32;98178.46;;;25.36;40.06
42177;BME280;28126;51.060;19.460;2022-11-15T16:28:43;98179.60;;;25.38;40.00
42177;BME280;28126;51.060;19.460;2022-11-15T16:31:45;98188.59;;;25.38;39.87
42177;BME280;28126;51.060;19.460;2022-11-15T16:34:47;98193.27;;;25.40;39.98
42177;BME280;28126;51.060;19.460;2022-11-15T16:37:48;98190.02;;;25.41;39.86
42177;BME280;28126;51.060;19.460;2022-11-15T16:40:51;98180.50;;;25.41;39.80
42177;BME280;28126;51.060;19.460;2022-11-15T16:43:53;98182.47;;;25.43;39.82
42177;BME280;28126;51.060;19.460;2022-11-15T16:46:57;98177.56;;;25.42;39.79
42177;BME280;28126;51.060;19.460;2022-11-15T16:49:59;98171.91;;;25.44;39.73
42177;BME280;28126;51.060;19.460;2022-11-15T16:53:01;98172.20;;;25.45;39.69
42177;BME280;28126;51.060;19.460;2022-11-15T16:56:14;98174.09;;;25.44;39.52
42177;BME280;28126;51.060;19.460;2022-11-15T16:59:15;98177.92;;;25.46;39.55
42177;BME280;28126;51.060;19.460;2022-11-15T17:02:18;98176.29;;;25.45;39.57
42177;BME280;28126;51.060;19.460;2022-11-15T17:05:23;98172.48;;;25.46;39.63
42177;BME280;28126;51.060;19.460;2022-11-15T17:08:28;98175.20;;;25.46;39.56
42177;BME280;28126;51.060;19.460;2022-11-15T17:11:30;98167.82;;;25.44;39.56
42177;BME280;28126;51.060;19.460;2022-11-15T17:14:31;98162.97;;;25.46;39.54
42177;BME280;28126;51.060;19.460;2022-11-15T17:17:33;98156.69;;;25.45;39.93
42177;BME280;28126;51.060;19.460;2022-11-15T17:20:34;98158.36;;;25.47;40.50
42177;BME280;28126;51.060;19.460;2022-11-15T17:23:36;98157.61;;;25.49;40.74
42177;BME280;28126;51.060;19.460;2022-11-15T17:26:38;98154.15;;;25.51;40.76
42177;BME280;28126;51.060;19.460;2022-11-15T17:29:42;98151.17;;;25.52;40.65
42177;BME280;28126;51.060;19.460;2022-11-15T17:32:44;98154.73;;;25.53;40.50
42177;BME280;28126;51.060;19.460;2022-11-15T17:36:01;98150.43;;;25.54;40.60
42177;BME280;28126;51.060;19.460;2022-11-15T17:39:06;98149.37;;;25.55;40.55
42177;BME280;28126;51.060;19.460;2022-11-15T17:42:09;98153.80;;;25.56;40.50
42177;BME280;28126;51.060;19.460;2022-11-15T17:45:11;98148.36;;;25.56;40.41
42177;BME280;28126;51.060;19.460;2022-11-15T17:48:13;98146.22;;;25.58;40.48
42177;BME280;28126;51.060;19.460;2022-11-15T17:51:17;98143.80;;;25.59;40.55
42177;BME280;28126;51.060;19.460;2022-11-15T17:54:22;98143.80;;;25.59;40.47
42177;BME280;28126;51.060;19.460;2022-11-15T17:57:24;98148.19;;;25.60;40.50
42177;BME280;28126;51.060;19.460;2022-11-15T18:00:26;98143.58;;;25.61;40.52
42177;BME280;28126;51.060;19.460;2022-11-15T18:03:27;98142.22;;;25.61;40.57
42177;BME280;28126;51.060;19.460;2022-11-15T18:06:33;98139.50;;;25.61;40.51
42177;BME280;28126;51.060;19.460;2022-11-15T18:09:37;98138.97;;;25.61;40.50
42177;BME280;28126;51.060;19.460;2022-11-15T18:12:41;98135.33;;;25.58;40.61
42177;BME280;28126;51.060;19.460;2022-11-15T18:15:52;98126.42;;;25.60;40.58
42177;BME280;28126;51.060;19.460;2022-11-15T18:18:50;98133.00;;;25.62;40.46
42177;BME280;28126;51.060;19.460;2022-11-15T18:21:53;98129.67;;;25.60;40.47
42177;BME280;28126;51.060;19.460;2022-11-15T18:24:58;98124.01;;;25.61;40.47
42177;BME280;28126;51.060;19.460;2022-11-15T18:28:00;98118.04;;;25.62;40.44
42177;BME280;28126;51.060;19.460;2022-11-15T18:31:15;98115.32;;;25.62;40.44